This is the latest recevied weather packets stored in our database for station/object LX1CU-13. If no packets are shown the sender has not sent any weather packets the latest 10 day(s).
| Time | Temp. | Humidity | Pressure | Rain* | Wind** | Luminosity | Snow |
|---|---|---|---|---|---|---|---|
| 1777367033 | 25.56° C | 32% | 1013.7 hPa | 0 mm | - | - | - |
| 1777366733 | 25° C | 32% | 1013.8 hPa | 0 mm | - | - | - |
| 1777366433 | 25° C | 32% | 1013.8 hPa | 0 mm | - | - | - |
| 1777366133 | 25° C | 32% | 1013.8 hPa | 0 mm | - | - | - |
| 1777365833 | 25° C | 33% | 1013.8 hPa | 0 mm | - | - | - |
| 1777365533 | 25° C | 32% | 1013.8 hPa | 0 mm | - | - | - |
| 1777365233 | 25° C | 33% | 1013.8 hPa | 0 mm | - | - | - |
| 1777364933 | 25.56° C | 33% | 1013.8 hPa | 0 mm | - | - | - |
| 1777364633 | 24.44° C | 35% | 1013.9 hPa | 0 mm | - | - | - |
| 1777364333 | 23.89° C | 36% | 1013.8 hPa | 0 mm | - | - | - |
| 1777364033 | 23.89° C | 36% | 1013.8 hPa | 0 mm | - | - | - |
| 1777363733 | 22.78° C | 37% | 1013.8 hPa | 0 mm | - | - | - |
| 1777363433 | 22.78° C | 37% | 1013.9 hPa | 0 mm | - | - | - |
| 1777363133 | 22.22° C | 39% | 1013.9 hPa | 0 mm | - | - | - |
| 1777362833 | 20.56° C | 40% | 1013.9 hPa | 0 mm | - | - | - |
| 1777362533 | 18.33° C | 44% | 1013.8 hPa | 0 mm | - | - | - |
| 1777362233 | 18.33° C | 44% | 1013.9 hPa | 0 mm | - | - | - |
| 1777361933 | 18.33° C | 45% | 1013.9 hPa | 0 mm | - | - | - |
| 1777361633 | 17.78° C | 46% | 1013.9 hPa | 0 mm | - | - | - |
| 1777361333 | 16.11° C | 49% | 1013.9 hPa | 0 mm | - | - | - |
| 1777361033 | 14.44° C | 52% | 1013.9 hPa | 0 mm | - | - | - |
| 1777360733 | 13.33° C | 54% | 1013.9 hPa | 0 mm | - | - | - |
| 1777360433 | 12.78° C | 54% | 1013.9 hPa | 0 mm | - | - | - |
| 1777360133 | 12.22° C | 55% | 1013.8 hPa | 0 mm | - | - | - |
| 1777359833 | 12.22° C | 56% | 1013.8 hPa | 0 mm | - | - | - |
* Rain latest hour (hover to see other rain measurements)
** Current wind speed in m/s (hover to see current wind gust speed)